createdAt,value
2022-12-14T00:01:23.429Z,31.48
2022-12-14T00:03:50.766Z,31.20
2022-12-14T00:06:19.896Z,31.00
2022-12-14T00:08:47.572Z,34.10
2022-12-14T00:11:14.615Z,33.00
2022-12-14T00:13:41.897Z,33.90
2022-12-14T00:16:10.568Z,37.17
2022-12-14T00:18:37.919Z,37.03
2022-12-14T00:21:09.491Z,41.40
2022-12-14T00:23:39.144Z,31.83
2022-12-14T00:26:16.192Z,35.10
2022-12-14T00:28:44.253Z,30.60
2022-12-14T00:31:11.426Z,39.90
2022-12-14T00:33:38.433Z,34.53
2022-12-14T00:36:06.402Z,39.67
2022-12-14T00:38:33.183Z,34.95
2022-12-14T00:40:59.873Z,35.28
2022-12-14T00:43:26.524Z,37.30
2022-12-14T00:45:53.453Z,32.80
2022-12-14T00:48:21.694Z,36.47
2022-12-14T00:53:16.268Z,34.65
2022-12-14T00:55:49.288Z,34.60
2022-12-14T00:58:18.628Z,31.52
2022-12-14T01:00:45.612Z,31.67
2022-12-14T01:03:12.647Z,38.15
2022-12-14T01:05:39.767Z,31.27
2022-12-14T01:08:07.177Z,30.77
2022-12-14T01:10:33.873Z,30.88
2022-12-14T01:13:00.504Z,31.95
2022-12-14T01:15:27.051Z,30.42
2022-12-14T01:17:53.703Z,31.98
2022-12-14T01:20:20.271Z,32.63
2022-12-14T01:22:46.957Z,32.03
2022-12-14T01:25:13.525Z,31.98
2022-12-14T01:27:40.098Z,33.80
2022-12-14T01:30:07.190Z,29.45
2022-12-14T01:32:34.779Z,31.30
2022-12-14T01:35:01.397Z,31.65
2022-12-14T01:37:28.928Z,25.38
2022-12-14T01:39:55.577Z,30.98
2022-12-14T01:42:22.154Z,28.10
2022-12-14T01:44:52.870Z,30.75
2022-12-14T01:47:22.147Z,27.42
2022-12-14T01:49:56.944Z,25.88
2022-12-14T01:52:45.603Z,26.17
2022-12-14T01:55:16.651Z,25.50
2022-12-14T01:57:54.952Z,32.40
2022-12-14T02:00:21.740Z,28.38
2022-12-14T02:03:04.384Z,27.08
2022-12-14T02:05:32.399Z,26.08
2022-12-14T02:07:59.280Z,28.70
2022-12-14T02:10:27.942Z,26.70
2022-12-14T02:13:22.250Z,32.78
2022-12-14T02:15:48.910Z,24.40
2022-12-14T02:18:20.831Z,25.25
2022-12-14T02:21:14.345Z,28.15
2022-12-14T02:24:13.356Z,24.35
2022-12-14T02:27:18.728Z,24.35
2022-12-14T02:29:48.320Z,23.75
2022-12-14T02:32:47.172Z,22.77
2022-12-14T02:35:36.444Z,21.60
2022-12-14T02:38:11.381Z,22.17
2022-12-14T02:40:48.664Z,20.42
2022-12-14T02:43:34.171Z,21.70
2022-12-14T02:46:17.366Z,20.50
2022-12-14T02:48:49.356Z,21.77
2022-12-14T02:51:25.300Z,20.77
2022-12-14T02:54:01.758Z,21.75
2022-12-14T02:56:34.230Z,18.85
2022-12-14T02:59:01.518Z,20.05
2022-12-14T03:01:30.054Z,22.23
2022-12-14T03:03:56.871Z,19.20
2022-12-14T03:06:27.852Z,24.08
2022-12-14T03:09:01.453Z,18.55
2022-12-14T03:11:35.592Z,24.15
2022-12-14T03:14:10.736Z,18.08
2022-12-14T03:16:41.858Z,21.67
2022-12-14T03:19:16.073Z,27.00
2022-12-14T03:21:50.169Z,21.30
2022-12-14T03:24:45.042Z,18.70
2022-12-14T03:27:22.219Z,17.88
2022-12-14T03:29:55.314Z,20.83
2022-12-14T03:32:28.031Z,17.65
2022-12-14T03:35:00.630Z,21.42
2022-12-14T03:37:34.907Z,19.20
2022-12-14T03:40:01.527Z,18.30
2022-12-14T03:42:42.727Z,21.77
2022-12-14T03:47:56.863Z,20.27
2022-12-14T03:50:35.636Z,19.88
2022-12-14T03:53:15.198Z,19.10
2022-12-14T03:55:49.054Z,21.60
2022-12-14T03:58:26.881Z,23.80
2022-12-14T04:01:11.974Z,19.92
2022-12-14T04:04:04.667Z,19.65
2022-12-14T04:07:02.903Z,20.77
2022-12-14T04:09:29.392Z,19.65
2022-12-14T04:12:49.448Z,20.33
2022-12-14T04:15:43.092Z,20.25
2022-12-14T04:18:32.378Z,23.75
2022-12-14T04:21:07.766Z,22.10
2022-12-14T04:24:04.651Z,22.90
2022-12-14T04:26:35.556Z,22.90
2022-12-14T04:29:31.346Z,21.88
2022-12-14T04:32:11.083Z,23.23
2022-12-14T04:34:39.435Z,19.52
2022-12-14T04:37:09.654Z,19.92
2022-12-14T04:39:42.666Z,20.27
2022-12-14T04:42:10.645Z,19.45
2022-12-14T04:44:49.387Z,24.33
2022-12-14T04:47:17.664Z,22.70
2022-12-14T04:50:01.884Z,21.02
2022-12-14T04:52:41.038Z,20.27
2022-12-14T04:55:16.699Z,26.17
2022-12-14T04:57:48.610Z,24.73
2022-12-14T05:00:15.743Z,18.30
2022-12-14T05:03:30.988Z,24.30
2022-12-14T05:05:57.846Z,20.50
2022-12-14T05:08:48.611Z,22.30
2022-12-14T05:11:52.602Z,19.13
2022-12-14T05:14:31.968Z,24.30
2022-12-14T05:17:01.245Z,18.77
2022-12-14T05:19:30.052Z,24.23
2022-12-14T05:21:56.784Z,22.73
2022-12-14T05:24:23.337Z,24.38
2022-12-14T05:26:49.908Z,20.55
2022-12-14T05:29:17.841Z,20.13
2022-12-14T05:31:49.556Z,21.15
2022-12-14T05:34:16.676Z,21.98
2022-12-14T05:36:43.225Z,20.50
2022-12-14T05:39:09.824Z,19.40
2022-12-14T05:41:36.392Z,23.15
2022-12-14T05:44:02.942Z,21.23
2022-12-14T05:46:29.687Z,20.73
2022-12-14T05:48:56.273Z,23.10
2022-12-14T05:51:22.927Z,21.05
2022-12-14T05:53:49.463Z,18.35
2022-12-14T05:56:16.066Z,27.33
2022-12-14T05:58:42.992Z,24.58
2022-12-14T06:01:15.648Z,20.85
2022-12-14T06:03:45.761Z,19.45
2022-12-14T06:06:13.553Z,18.02
2022-12-14T06:08:43.322Z,15.20
2022-12-14T06:11:21.467Z,17.20
2022-12-14T06:13:48.286Z,16.25
2022-12-14T06:16:16.797Z,18.80
2022-12-14T06:18:48.432Z,20.67
2022-12-14T06:21:16.560Z,19.98
2022-12-14T06:26:10.245Z,21.58
2022-12-14T06:28:37.200Z,18.70
2022-12-14T06:31:04.914Z,23.60
2022-12-14T06:33:33.351Z,23.80
2022-12-14T06:35:59.895Z,21.23
2022-12-14T06:38:26.654Z,24.70
2022-12-14T06:40:53.278Z,25.45
2022-12-14T06:43:20.581Z,23.17
2022-12-14T06:45:47.226Z,21.35
2022-12-14T06:48:13.803Z,24.55
2022-12-14T06:50:40.393Z,17.90
2022-12-14T06:53:06.938Z,19.60
2022-12-14T06:55:33.501Z,18.05
2022-12-14T06:58:00.446Z,18.55
2022-12-14T07:00:27.058Z,23.73
2022-12-14T07:02:53.924Z,16.48
2022-12-14T07:05:20.677Z,17.85
2022-12-14T07:07:47.316Z,15.57
2022-12-14T07:10:15.822Z,20.20
2022-12-14T07:12:42.714Z,19.55
2022-12-14T07:15:10.261Z,21.98
2022-12-14T07:17:37.460Z,21.90
2022-12-14T07:20:05.683Z,17.00
2022-12-14T07:22:33.044Z,18.20
2022-12-14T07:24:59.570Z,22.15
2022-12-14T07:27:26.253Z,19.20
2022-12-14T07:29:52.827Z,16.35
2022-12-14T07:32:19.376Z,19.52
2022-12-14T07:34:46.007Z,18.85
2022-12-14T07:37:13.324Z,21.77
2022-12-14T07:39:39.898Z,23.25
2022-12-14T07:42:06.514Z,20.42
2022-12-14T07:44:33.155Z,23.10
2022-12-14T07:46:59.693Z,22.73
2022-12-14T07:49:26.275Z,22.65
2022-12-14T07:51:53.067Z,20.35
2022-12-14T07:54:19.673Z,19.88
2022-12-14T07:56:46.297Z,19.73
2022-12-14T07:59:15.478Z,21.42
2022-12-14T08:01:43.663Z,21.17
2022-12-14T08:04:13.206Z,23.38
2022-12-14T08:06:40.661Z,18.75
2022-12-14T08:09:08.971Z,23.67
2022-12-14T08:11:35.703Z,21.70
2022-12-14T08:14:08.466Z,26.17
2022-12-14T08:16:35.089Z,25.65
2022-12-14T08:19:02.258Z,20.05
2022-12-14T08:21:29.868Z,23.67
2022-12-14T08:23:57.259Z,23.60
2022-12-14T08:26:30.065Z,24.42
2022-12-14T08:29:01.697Z,21.75
2022-12-14T08:31:28.846Z,21.42
2022-12-14T08:33:55.705Z,26.77
2022-12-14T08:36:25.182Z,25.23
2022-12-14T08:38:56.673Z,20.98
2022-12-14T08:41:23.872Z,20.00
2022-12-14T08:43:51.646Z,24.53
2022-12-14T08:46:18.988Z,22.67
2022-12-14T08:48:45.751Z,26.48
2022-12-14T08:51:12.411Z,21.65
2022-12-14T08:53:39.607Z,25.25
2022-12-14T08:56:11.759Z,26.70
2022-12-14T08:58:39.329Z,26.00
2022-12-14T09:01:14.410Z,20.48
2022-12-14T09:03:41.986Z,21.70
2022-12-14T09:06:10.420Z,19.65
2022-12-14T09:08:37.357Z,16.10
2022-12-14T09:11:04.935Z,18.95
2022-12-14T09:13:32.486Z,18.63
2022-12-14T09:16:07.542Z,18.27
2022-12-14T09:18:34.558Z,15.68
2022-12-14T09:21:01.707Z,19.95
2022-12-14T09:23:30.278Z,15.55
2022-12-14T09:26:06.258Z,17.55
2022-12-14T09:28:34.996Z,17.80
2022-12-14T09:31:05.200Z,18.15
2022-12-14T09:33:32.631Z,17.90
2022-12-14T09:36:01.872Z,17.58
2022-12-14T09:38:30.718Z,15.63
2022-12-14T09:40:59.488Z,21.25
2022-12-14T09:43:38.382Z,19.23
2022-12-14T09:46:22.302Z,17.67
2022-12-14T09:48:49.223Z,19.08
2022-12-14T09:51:17.689Z,19.92
2022-12-14T09:53:45.632Z,17.10
2022-12-14T09:56:15.619Z,19.85
2022-12-14T09:58:49.566Z,18.70
2022-12-14T10:04:57.820Z,23.05
2022-12-14T10:07:49.815Z,25.33
2022-12-14T10:10:19.490Z,20.67
2022-12-14T10:13:14.284Z,20.60
2022-12-14T10:16:00.231Z,19.33
2022-12-14T10:19:01.158Z,16.92
2022-12-14T10:22:09.453Z,18.08
2022-12-14T10:27:07.683Z,15.85
2022-12-14T10:29:44.663Z,21.63
2022-12-14T10:32:20.476Z,16.95
2022-12-14T10:34:47.642Z,20.10
2022-12-14T10:37:14.179Z,21.85
2022-12-14T10:39:59.265Z,21.90
2022-12-14T10:42:42.527Z,19.83
2022-12-14T10:45:40.468Z,17.98
2022-12-14T10:48:19.647Z,15.63
2022-12-14T10:51:02.402Z,18.50
2022-12-14T10:53:40.934Z,20.42
2022-12-14T10:56:13.882Z,17.08
2022-12-14T10:58:40.687Z,19.30
2022-12-14T11:01:13.594Z,18.27
2022-12-14T11:03:41.395Z,19.00
2022-12-14T11:06:15.980Z,19.15
2022-12-14T11:08:48.035Z,16.17
2022-12-14T11:11:18.893Z,20.08
2022-12-14T11:13:54.512Z,18.23
2022-12-14T11:16:36.965Z,17.38
2022-12-14T11:19:06.485Z,17.30
2022-12-14T11:21:37.952Z,19.02
2022-12-14T11:24:05.630Z,15.23
2022-12-14T11:26:33.359Z,18.00
2022-12-14T11:29:01.006Z,18.30
2022-12-14T11:31:36.235Z,18.35
2022-12-14T11:34:04.792Z,17.73
2022-12-14T11:36:39.825Z,17.80
2022-12-14T11:39:20.366Z,16.38
2022-12-14T11:41:48.731Z,15.32
2022-12-14T11:47:01.366Z,16.02
2022-12-14T11:49:38.604Z,17.10
2022-12-14T11:52:05.110Z,19.07
2022-12-14T11:54:39.980Z,15.77
2022-12-14T11:57:21.042Z,16.65
2022-12-14T11:59:48.764Z,15.05
2022-12-14T12:02:22.977Z,13.73
2022-12-14T12:05:05.726Z,16.17
2022-12-14T12:07:35.195Z,17.50
2022-12-14T12:10:23.976Z,15.60
2022-12-14T12:13:28.567Z,14.23
2022-12-14T12:15:57.464Z,14.63
2022-12-14T12:18:54.838Z,16.60
2022-12-14T12:21:31.265Z,17.95
2022-12-14T12:24:27.395Z,16.83
2022-12-14T12:26:59.123Z,20.45
2022-12-14T12:29:32.141Z,18.63
2022-12-14T12:32:19.788Z,16.75
2022-12-14T12:34:52.445Z,13.77
2022-12-14T12:37:27.601Z,17.92
2022-12-14T12:39:59.709Z,19.38
2022-12-14T12:43:06.335Z,18.25
2022-12-14T12:45:43.052Z,19.98
2022-12-14T12:48:32.745Z,16.38
2022-12-14T12:51:07.510Z,17.17
2022-12-14T12:53:41.763Z,17.85
2022-12-14T12:56:11.696Z,18.73
2022-12-14T12:58:39.463Z,17.17
2022-12-14T13:01:28.613Z,16.13
2022-12-14T13:04:01.962Z,19.35
2022-12-14T13:06:35.174Z,18.48
2022-12-14T13:09:29.953Z,17.27
2022-12-14T13:11:57.096Z,16.17
2022-12-14T13:14:33.855Z,19.33
2022-12-14T13:17:03.285Z,17.25
2022-12-14T13:19:50.459Z,14.30
2022-12-14T13:22:23.156Z,18.42
2022-12-14T13:24:55.553Z,14.02
2022-12-14T13:27:36.577Z,15.95
2022-12-14T13:30:18.706Z,15.80
2022-12-14T13:33:15.248Z,16.70
2022-12-14T13:35:50.923Z,21.38
2022-12-14T13:38:32.937Z,16.55
2022-12-14T13:41:08.372Z,19.30
2022-12-14T13:43:52.093Z,16.80
2022-12-14T13:46:23.524Z,13.35
2022-12-14T13:48:53.622Z,15.00
2022-12-14T13:51:30.358Z,13.23
2022-12-14T13:53:59.507Z,16.30
2022-12-14T13:56:33.195Z,14.13
2022-12-14T13:59:02.194Z,13.60
2022-12-14T14:04:16.713Z,12.55
2022-12-14T14:06:45.927Z,11.98
2022-12-14T14:09:31.470Z,13.70
2022-12-14T14:11:59.952Z,12.23
2022-12-14T14:17:20.183Z,11.27
2022-12-14T14:19:49.553Z,11.02
2022-12-14T14:22:27.730Z,13.15
2022-12-14T14:24:58.345Z,9.43
2022-12-14T14:27:50.490Z,14.35
2022-12-14T14:30:30.113Z,12.93
2022-12-14T14:33:19.898Z,11.05
2022-12-14T14:35:44.676Z,14.57
2022-12-14T14:38:28.388Z,12.32
2022-12-14T14:41:17.491Z,15.07
2022-12-14T14:43:51.677Z,14.60
2022-12-14T14:46:22.896Z,13.93
2022-12-14T14:48:50.007Z,13.30
2022-12-14T14:51:23.214Z,11.73
2022-12-14T14:57:35.953Z,9.93
2022-12-14T15:00:04.093Z,11.80
2022-12-14T15:02:33.506Z,12.57
2022-12-14T15:05:24.726Z,10.82
2022-12-14T15:07:48.174Z,12.18
2022-12-14T15:10:20.686Z,13.20
2022-12-14T15:12:59.951Z,12.05
2022-12-14T15:15:40.155Z,16.60
2022-12-14T15:18:23.654Z,12.23
2022-12-14T15:21:05.619Z,11.57
2022-12-14T15:23:35.710Z,11.23
2022-12-14T15:26:04.639Z,14.38
2022-12-14T15:28:32.111Z,13.63
2022-12-14T15:31:00.098Z,13.57
2022-12-14T15:33:33.897Z,13.18
2022-12-14T15:36:17.647Z,12.85
2022-12-14T15:38:52.853Z,14.07
2022-12-14T15:41:20.920Z,16.92
2022-12-14T15:43:50.281Z,10.40
2022-12-14T15:46:28.167Z,12.32
2022-12-14T15:48:59.901Z,14.75
2022-12-14T15:51:38.066Z,15.02
2022-12-14T15:56:38.853Z,13.82
2022-12-14T15:59:12.874Z,15.77
2022-12-14T16:01:44.904Z,17.40
2022-12-14T16:04:17.128Z,15.40
2022-12-14T16:06:49.459Z,15.90
2022-12-14T16:09:35.279Z,16.98
2022-12-14T16:12:08.912Z,14.90
2022-12-14T16:14:48.002Z,20.20
2022-12-14T16:17:18.581Z,14.68
2022-12-14T16:20:22.626Z,16.70
2022-12-14T16:23:15.201Z,20.85
2022-12-14T16:25:53.509Z,47.65
2022-12-14T16:28:31.299Z,57.88
2022-12-14T16:31:02.652Z,21.85
2022-12-14T16:33:30.555Z,18.08
2022-12-14T16:36:22.363Z,18.02
2022-12-14T16:38:57.908Z,22.98
2022-12-14T16:41:41.626Z,21.35
2022-12-14T16:44:12.502Z,16.17
2022-12-14T16:46:39.173Z,16.67
2022-12-14T16:49:21.114Z,20.60
2022-12-14T16:52:12.729Z,20.00
2022-12-14T16:54:39.708Z,23.45
2022-12-14T16:57:26.507Z,21.77
2022-12-14T16:59:59.632Z,18.98
2022-12-14T17:02:35.798Z,22.05
2022-12-14T17:05:06.294Z,16.67
2022-12-14T17:07:33.546Z,18.90
2022-12-14T17:10:00.359Z,15.98
2022-12-14T17:12:27.391Z,19.35
2022-12-14T17:14:54.337Z,21.30
2022-12-14T17:17:33.360Z,16.42
2022-12-14T17:20:00.046Z,20.42
2022-12-14T17:22:30.426Z,26.23
2022-12-14T17:24:57.693Z,29.40
2022-12-14T17:27:26.763Z,25.00
2022-12-14T17:29:54.531Z,23.48
2022-12-14T17:32:22.424Z,20.75
2022-12-14T17:34:48.979Z,27.23
2022-12-14T17:37:21.944Z,28.90
2022-12-14T17:39:48.695Z,19.38
2022-12-14T17:42:17.772Z,19.75
2022-12-14T17:44:57.207Z,22.45
2022-12-14T17:47:24.149Z,25.48
2022-12-14T17:49:50.916Z,21.55
2022-12-14T17:52:24.310Z,21.02
2022-12-14T17:54:50.983Z,19.33
2022-12-14T17:57:22.955Z,19.88
2022-12-14T18:00:10.106Z,23.92
2022-12-14T18:02:37.425Z,22.17
2022-12-14T18:05:04.438Z,16.85
2022-12-14T18:07:31.018Z,26.90
2022-12-14T18:09:57.590Z,20.23
2022-12-14T18:12:25.891Z,24.17
2022-12-14T18:14:52.620Z,22.73
2022-12-14T18:17:19.396Z,19.88
2022-12-14T18:19:49.837Z,21.35
2022-12-14T18:22:16.821Z,20.10
2022-12-14T18:24:43.450Z,18.95
2022-12-14T18:27:13.607Z,21.83
2022-12-14T18:29:40.296Z,27.42
2022-12-14T18:32:06.855Z,18.35
2022-12-14T18:34:33.402Z,17.67
2022-12-14T18:36:59.966Z,22.35
2022-12-14T18:39:26.514Z,20.38
2022-12-14T18:41:53.067Z,21.40
2022-12-14T18:44:19.655Z,20.83
2022-12-14T18:46:49.347Z,18.85
2022-12-14T18:49:16.308Z,21.98
2022-12-14T18:51:43.078Z,20.92
2022-12-14T18:54:10.167Z,21.30
2022-12-14T18:56:36.715Z,20.27
2022-12-14T18:59:03.434Z,26.33
2022-12-14T19:01:30.131Z,20.92
2022-12-14T19:03:56.867Z,22.55
2022-12-14T19:09:13.486Z,22.88
2022-12-14T19:14:08.012Z,19.67
2022-12-14T19:16:34.680Z,17.45
2022-12-14T19:19:01.343Z,22.85
2022-12-14T19:21:29.512Z,25.00
2022-12-14T19:26:22.742Z,21.10
2022-12-14T19:28:49.322Z,21.88
2022-12-14T19:31:15.969Z,20.58
2022-12-14T19:33:42.682Z,22.48
2022-12-14T19:36:09.914Z,26.02
2022-12-14T19:38:37.863Z,26.42
2022-12-14T19:41:07.800Z,22.23
2022-12-14T19:43:35.278Z,23.90
2022-12-14T19:46:12.675Z,21.58
2022-12-14T19:48:39.801Z,27.07
2022-12-14T19:51:10.449Z,27.60
2022-12-14T19:53:38.262Z,23.48
2022-12-14T19:56:05.572Z,28.48
2022-12-14T19:58:32.225Z,21.63
2022-12-14T20:00:58.866Z,25.65
2022-12-14T20:03:25.638Z,23.45
2022-12-14T20:05:58.599Z,26.15
2022-12-14T20:08:26.581Z,25.77
2022-12-14T20:10:53.239Z,25.77
2022-12-14T20:13:23.969Z,28.90
2022-12-14T20:15:52.705Z,28.17
2022-12-14T20:18:20.743Z,22.80
2022-12-14T20:20:49.397Z,25.98
2022-12-14T20:23:17.596Z,28.88
2022-12-14T20:25:45.295Z,26.05
2022-12-14T20:28:11.971Z,21.83
2022-12-14T20:30:45.989Z,23.98
2022-12-14T20:33:13.013Z,24.95
2022-12-14T20:35:39.794Z,23.88
2022-12-14T20:38:06.370Z,27.35
2022-12-14T20:40:38.073Z,28.27
2022-12-14T20:43:06.169Z,23.92
2022-12-14T20:45:40.299Z,27.95
2022-12-14T20:48:07.635Z,27.00
2022-12-14T20:50:39.105Z,24.58
2022-12-14T20:53:06.559Z,28.58
2022-12-14T20:55:34.397Z,29.85
2022-12-14T20:58:01.458Z,25.30
2022-12-14T21:00:28.528Z,25.85
2022-12-14T21:02:55.373Z,28.90
2022-12-14T21:05:21.978Z,28.05
2022-12-14T21:07:48.817Z,24.33
2022-12-14T21:10:15.407Z,27.85
2022-12-14T21:12:41.969Z,26.90
2022-12-14T21:15:08.735Z,25.95
2022-12-14T21:17:35.263Z,31.08
2022-12-14T21:20:01.919Z,36.55
2022-12-14T21:22:30.518Z,29.30
2022-12-14T21:25:05.976Z,30.83
2022-12-14T21:27:34.234Z,24.90
2022-12-14T21:30:00.979Z,40.50
2022-12-14T21:32:28.217Z,30.27
2022-12-14T21:34:54.822Z,31.48
2022-12-14T21:37:22.047Z,26.52
2022-12-14T21:39:55.030Z,26.15
2022-12-14T21:42:24.702Z,30.70
2022-12-14T21:44:52.893Z,30.13
2022-12-14T21:47:22.357Z,25.08
2022-12-14T21:49:49.322Z,27.38
2022-12-14T21:52:18.979Z,29.92
2022-12-14T21:54:45.560Z,30.10
2022-12-14T21:57:36.333Z,29.70
2022-12-14T22:00:05.176Z,35.33
2022-12-14T22:02:32.014Z,33.83
2022-12-14T22:04:58.667Z,34.10
2022-12-14T22:07:31.494Z,32.58
2022-12-14T22:09:58.044Z,37.40
2022-12-14T22:12:25.523Z,29.05
2022-12-14T22:14:52.138Z,29.45
2022-12-14T22:17:18.800Z,26.27
2022-12-14T22:19:45.367Z,25.20
2022-12-14T22:22:14.257Z,28.15
2022-12-14T22:24:41.036Z,27.70
2022-12-14T22:27:07.581Z,25.98
2022-12-14T22:29:34.175Z,30.40
2022-12-14T22:32:00.828Z,28.55
2022-12-14T22:34:27.491Z,32.40
2022-12-14T22:36:54.051Z,24.92
2022-12-14T22:39:20.667Z,30.40
2022-12-14T22:41:48.833Z,29.75
2022-12-14T22:46:41.978Z,28.30
2022-12-14T22:49:08.982Z,30.60
2022-12-14T22:51:35.633Z,27.98
2022-12-14T22:54:02.808Z,28.55
2022-12-14T22:56:39.374Z,22.47
2022-12-14T22:59:14.695Z,32.40
2022-12-14T23:01:42.082Z,20.98
2022-12-14T23:04:10.946Z,32.85
2022-12-14T23:06:37.918Z,25.80
2022-12-14T23:09:23.670Z,26.23
2022-12-14T23:12:11.461Z,25.77
2022-12-14T23:14:57.507Z,27.88
2022-12-14T23:17:43.549Z,32.33
2022-12-14T23:20:29.078Z,31.85
2022-12-14T23:23:14.611Z,25.33
2022-12-14T23:25:59.614Z,22.75
2022-12-14T23:28:49.827Z,26.85
2022-12-14T23:31:35.428Z,30.52
2022-12-14T23:34:20.397Z,32.30
2022-12-14T23:37:05.531Z,23.73
2022-12-14T23:39:50.630Z,31.35
2022-12-14T23:42:35.834Z,31.65
2022-12-14T23:45:20.688Z,27.33
2022-12-14T23:48:05.660Z,24.63
2022-12-14T23:50:50.495Z,24.33
2022-12-14T23:53:35.938Z,25.83
2022-12-14T23:56:21.446Z,23.75
2022-12-14T23:59:10.446Z,23.27
